Victoria International Airport
CYYJ : now visible

Airfield :











YOU CAN JOIN US ON...

 
LOGIN :

Register | Disclaimer

   EN    FR    IT 

 









Legend :    VFR   Marginal VFR   IFR   Intensive IFR   Very Intensive IFR
Visi :
Ceiling :
>= 8 km
>= 3000ft
5 to 8 km
1000 to 3000 ft
1500m to 5 km
500 to 1000 ft
800 to 1500m
200 to 500 ft
< 800m
< 200 ft
Symbols :   Thunderstorms  Fog  Heavy snow  Heavy precipitations  Wind > 20 kt







- Airport Elevation : 63 ft
- IATA code : YYJ


CYYJ - Victoria International

CURRENT METAR :
  • 180600Z 27003KT 20SM BKN052 BKN090 01/01 A3033 RMK SC6AC1 WND ESTD SLP272

EXPIRED METARs :
  • 180500Z 00000KT 20SM BKN044 BKN090 M02/M02 A3030 RMK SC6AC1 WND ESTD SLP264
  • 180400Z 23003KT 20SM FEW090 FEW120 M01/M01 A3029 RMK AC2AC1 AC TR WND ESTD SLP261

TAF TAF CYYJ
Valid from the 18 at 06:00 until the 19 at 06:00 UTC


180538Z 1806/1906 VRB03KT P6SM BKN040
FM181000 29005KT P6SM SCT020
FM181800 01006KT P6SM OVC030
FM190200 06006KT P6SM OVC025 RMK NXT FCST BY 181200Z
CZVR FIR / North America



MET'MAP, your aeronautical weather chart ! - Copyright ORBIFLY December 2007 - Disclaimer

ORBIFLY MET'MAP TEAM :

Programming & Development : Alexandra Zaïnal
Concept & Development : Baudouin d'Aumeries
Co-Development & Prog : Marc-Olivier Méhu
Technical & hardware support : Manuel Goepfert

Contact : metmap@orbifly.com




SOURCES & CREDITS :

   NOAA       Earth
Advisory